Time;durP1;ratioP1;P1;durP2;ratioP2;P2;SDS_P1;SDS_P2;PMS_P1;PMS_P2;Temp;Humidity;BMP_temperature;BMP_pressure;BME280_temperature;BME280_humidity;BME280_pressure;Samples;Min_cycle;Max_cycle;Signal;HPM_P1;HPM_P2
2024/02/25 00:01:36;;;;;;;4.35;2.65;;;7.60;99.90;;;;;;5020818;28;20029;-66
2024/02/25 00:04:02;;;;;;;10.35;2.97;;;;;;;;;;5022306;28;20021;-65
2024/02/25 00:06:29;;;;;;;5.72;3.30;;;7.80;99.90;;;;;;5022290;28;20087;-64
2024/02/25 00:08:55;;;;;;;4.80;2.67;;;;;;;;;;5021515;28;20014;-65
2024/02/25 00:11:21;;;;;;;6.05;3.10;;;7.40;99.90;;;;;;5021727;28;20033;-67
2024/02/25 00:13:46;;;;;;;4.38;2.78;;;7.80;99.90;;;;;;5022449;28;20025;-65
2024/02/25 00:16:12;;;;;;;8.27;4.00;;;;;;;;;;5021923;28;20109;-67
2024/02/25 00:18:38;;;;;;;5.25;3.30;;;;;;;;;;5021824;28;20066;-69
2024/02/25 00:21:06;;;;;;;5.78;3.33;;;7.40;99.90;;;;;;5021663;28;20069;-66
2024/02/25 00:23:32;;;;;;;5.75;3.95;;;;;;;;;;5021684;28;20025;-67
2024/02/25 00:25:58;;;;;;;6.97;4.22;;;;;;;;;;5020447;28;20030;-66
2024/02/25 00:28:24;;;;;;;11.85;6.57;;;7.60;99.90;;;;;;5021337;28;20052;-66
2024/02/25 00:30:50;;;;;;;15.63;7.90;;;;;;;;;;5021654;28;20026;-65
2024/02/25 00:33:16;;;;;;;14.07;7.00;;;7.10;99.90;;;;;;5021258;28;20132;-66
2024/02/25 00:35:41;;;;;;;8.48;3.53;;;;;;;;;;5021457;28;20085;-66
2024/02/25 00:38:09;;;;;;;4.30;2.90;;;;;;;;;;5021462;28;20049;-70
2024/02/25 00:40:36;;;;;;;5.40;2.75;;;;;;;;;;5021539;28;20026;-66
2024/02/25 00:43:02;;;;;;;5.03;2.60;;;7.50;99.90;;;;;;5020432;28;20052;-66
2024/02/25 00:45:28;;;;;;;6.13;3.40;;;;;;;;;;5021734;28;20026;-65
2024/02/25 00:47:54;;;;;;;6.53;3.85;;;;;;;;;;5021727;28;20091;-66
2024/02/25 00:50:20;;;;;;;3.25;2.10;;;;;;;;;;5021919;28;20026;-66
2024/02/25 00:52:46;;;;;;;9.75;5.25;;;7.80;99.90;;;;;;5021536;28;20213;-66
2024/02/25 00:55:12;;;;;;;7.55;4.57;;;7.40;99.90;;;;;;5021585;28;20052;-66
2024/02/25 00:57:39;;;;;;;8.73;5.57;;;7.30;99.90;;;;;;5020194;28;20450;-70
2024/02/25 01:00:07;;;;;;;10.80;5.60;;;7.50;99.90;;;;;;5025089;28;20029;-67
2024/02/25 01:02:33;;;;;;;9.20;5.25;;;7.10;99.90;;;;;;5021296;28;20026;-67
2024/02/25 01:04:59;;;;;;;8.40;5.50;;;;;;;;;;5030546;28;20051;-67
2024/02/25 01:07:25;;;;;;;8.93;5.97;;;;;;;;;;5041020;28;20029;-67
2024/02/25 01:09:51;;;;;;;10.02;5.45;;;;;;;;;;5030183;28;20017;-67
2024/02/25 01:12:17;;;;;;;11.75;5.65;;;;;;;;;;5020807;28;20340;-67
2024/02/25 01:14:44;;;;;;;12.35;5.85;;;;;;;;;;5020598;28;20013;-67
2024/02/25 01:17:10;;;;;;;10.05;5.82;;;;;;;;;;5020841;28;20037;-67
2024/02/25 01:19:35;;;;;;;13.30;6.88;;;7.00;99.90;;;;;;5035720;28;20537;-68
2024/02/25 01:22:01;;;;;;;10.18;5.32;;;7.00;99.90;;;;;;5039979;28;20040;-66
2024/02/25 01:24:27;;;;;;;10.98;5.22;;;6.90;99.90;;;;;;5040431;28;20081;-68
2024/02/25 01:26:53;;;;;;;7.15;3.47;;;;;;;;;;5040546;28;20025;-67
2024/02/25 01:29:19;;;;;;;4.00;3.03;;;;;;;;;;5040293;28;20326;-70
2024/02/25 01:31:52;;;;;;;5.75;2.95;;;7.40;99.90;;;;;;5040448;28;20116;-68
2024/02/25 01:34:18;;;;;;;7.28;3.33;;;7.50;99.90;;;;;;5040311;28;20041;-66
2024/02/25 01:36:45;;;;;;;6.35;3.55;;;;;;;;;;5040241;28;20033;-66
2024/02/25 01:39:11;;;;;;;4.63;2.20;;;;;;;;;;5039164;28;20032;-65
2024/02/25 01:41:37;;;;;;;4.35;2.70;;;7.70;99.90;;;;;;5040333;28;20058;-66
2024/02/25 01:44:03;;;;;;;3.35;2.17;;;8.00;99.90;;;;;;5040396;28;20021;-65
2024/02/25 01:46:29;;;;;;;4.90;2.35;;;8.10;99.90;;;;;;5040175;28;20025;-66
2024/02/25 01:48:55;;;;;;;2.63;1.85;;;8.10;99.90;;;;;;5040375;28;20029;-67
2024/02/25 01:51:21;;;;;;;6.55;2.00;;;8.40;99.90;;;;;;5040269;28;20072;-65
2024/02/25 01:53:50;;;;;;;6.00;4.07;;;8.40;99.90;;;;;;5040394;28;20045;-65
2024/02/25 01:56:16;;;;;;;5.63;3.45;;;8.30;99.90;;;;;;5039964;28;20099;-65
2024/02/25 01:58:43;;;;;;;7.15;3.42;;;7.30;99.90;;;;;;5040194;28;20329;-65
2024/02/25 02:01:14;;;;;;;4.90;2.35;;;8.20;99.90;;;;;;5040318;28;20302;-65
2024/02/25 02:03:41;;;;;;;7.07;2.13;;;8.30;99.90;;;;;;5040369;28;20068;-66
2024/02/25 02:06:11;;;;;;;2.90;2.25;;;8.40;99.90;;;;;;5040071;28;20095;-66
2024/02/25 02:08:37;;;;;;;2.38;1.63;;;8.30;99.90;;;;;;5040213;28;20021;-66
2024/02/25 02:11:18;;;;;;;3.35;2.10;;;8.30;99.90;;;;;;5039877;28;20237;-66
2024/02/25 02:13:44;;;;;;;3.92;1.92;;;8.30;99.90;;;;;;5040030;28;20340;-65
2024/02/25 02:16:14;;;;;;;4.28;2.20;;;8.20;99.90;;;;;;5039984;28;20041;-66
2024/02/25 02:18:43;;;;;;;5.55;2.65;;;8.10;99.90;;;;;;5039886;28;20028;-66
2024/02/25 02:21:10;;;;;;;5.20;2.65;;;8.20;99.90;;;;;;5040042;28;20052;-65
2024/02/25 02:23:38;;;;;;;4.80;2.92;;;;;;;;;;5040149;28;20309;-65
2024/02/25 02:26:03;;;;;;;5.90;3.85;;;7.90;99.90;;;;;;5040089;28;20013;-66
2024/02/25 02:28:29;;;;;;;5.60;3.45;;;;;;;;;;5040317;28;20028;-69
2024/02/25 02:30:55;;;;;;;6.20;3.67;;;;;;;;;;5040206;28;20093;-65
2024/02/25 02:33:22;;;;;;;5.30;3.60;;;;;;;;;;5041747;28;20057;-66
2024/02/25 02:35:49;;;;;;;5.80;3.50;;;7.90;99.90;;;;;;5044344;28;20112;-67
2024/02/25 02:38:15;;;;;;;6.97;3.88;;;;;;;;;;5044223;28;20032;-67
2024/02/25 02:40:44;;;;;;;7.60;4.32;;;;;;;;;;5044379;28;20044;-69
2024/02/25 02:43:10;;;;;;;;;;;7.70;99.90;;;;;;5044927;28;20025;-67
2024/02/25 02:45:36;;;;;;;7.28;3.85;;;;;;;;;;5043966;28;19931;-68
2024/02/25 02:48:08;;;;;;;6.97;4.20;;;7.40;99.90;;;;;;5045729;28;20029;-67
2024/02/25 02:50:33;;;;;;;6.63;3.53;;;7.40;99.90;;;;;;5045982;28;20029;-65
2024/02/25 02:52:59;;;;;;;7.75;4.20;;;;;;;;;;5044751;28;20017;-65
2024/02/25 02:55:25;;;;;;;10.07;5.00;;;7.00;99.90;;;;;;5044779;28;20332;-67
2024/02/25 02:57:51;;;;;;;9.15;4.70;;;6.90;99.90;;;;;;5044576;28;20103;-66
2024/02/25 03:00:17;;;;;;;7.82;5.18;;;;;;;;;;5043901;28;20063;-67
2024/02/25 03:02:43;;;;;;;8.48;5.82;;;6.70;99.90;;;;;;5043826;28;20029;-64
2024/02/25 03:05:09;;;;;;;11.10;5.18;;;;;;;;;;5044091;28;20032;-70
2024/02/25 03:07:34;;;;;;;10.68;5.10;;;6.80;99.90;;;;;;5043987;28;20021;-68
2024/02/25 03:10:00;;;;;;;9.43;5.85;;;;;;;;;;5045468;28;20055;-69
2024/02/25 03:12:26;;;;;;;8.60;5.18;;;;;;;;;;5045242;28;20056;-67
2024/02/25 03:14:52;;;;;;;9.50;5.47;;;;;;;;;;5045600;28;20093;-66
2024/02/25 03:17:20;;;;;;;10.45;6.30;;;;;;;;;;5045375;28;20487;-65
2024/02/25 03:19:46;;;;;;;11.40;6.22;;;;;;;;;;5044684;28;20025;-66
2024/02/25 03:22:12;;;;;;;11.05;5.95;;;6.40;99.90;;;;;;5045050;28;20025;-70
2024/02/25 03:24:39;;;;;;;10.80;6.22;;;6.40;99.90;;;;;;5045154;28;20356;-65
2024/02/25 03:27:05;;;;;;;10.95;5.65;;;6.40;99.90;;;;;;5045111;28;20029;-67
2024/02/25 03:29:31;;;;;;;10.38;5.68;;;6.50;99.90;;;;;;5044534;28;20021;-66
2024/02/25 03:31:57;;;;;;;12.07;6.50;;;;;;;;;;5044634;28;20040;-65
2024/02/25 03:34:23;;;;;;;10.77;6.18;;;;;;;;;;5042877;28;20053;-66
2024/02/25 03:36:49;;;;;;;12.98;7.15;;;6.30;99.90;;;;;;5044451;28;20056;-65
2024/02/25 03:39:15;;;;;;;7.53;4.88;;;;;;;;;;5044588;28;20025;-65
2024/02/25 03:41:41;;;;;;;13.38;5.82;;;;;;;;;;5043092;28;20026;-70
2024/02/25 03:44:06;;;;;;;13.82;6.75;;;6.00;99.90;;;;;;5044459;28;20356;-66
2024/02/25 03:46:32;;;;;;;9.45;5.13;;;;;;;;;;5044226;28;20026;-67
2024/02/25 03:48:58;;;;;;;14.52;8.52;;;6.10;99.90;;;;;;5040372;28;20041;-65
2024/02/25 03:51:24;;;;;;;12.90;7.15;;;;;;;;;;5023347;28;20325;-65
2024/02/25 03:53:50;;;;;;;14.20;7.53;;;;;;;;;;5023570;28;20096;-65
2024/02/25 03:56:16;;;;;;;12.07;7.10;;;6.50;99.90;;;;;;5031427;28;20056;-66
2024/02/25 03:58:41;;;;;;;12.73;7.25;;;5.90;99.90;;;;;;5043490;28;20021;-66
2024/02/25 04:01:07;;;;;;;7.22;4.63;;;5.80;99.90;;;;;;5043840;28;20079;-67
2024/02/25 04:03:33;;;;;;;17.42;9.02;;;;;;;;;;5043600;28;20025;-66
2024/02/25 04:06:00;;;;;;;14.80;8.85;;;5.90;99.90;;;;;;5043938;28;20017;-67
2024/02/25 04:08:26;;;;;;;12.93;8.02;;;;;;;;;;5043597;28;20091;-66
2024/02/25 04:10:52;;;;;;;17.27;8.50;;;;;;;;;;5043143;28;20303;-64
2024/02/25 04:13:17;;;;;;;13.48;7.90;;;5.70;99.90;;;;;;5042834;28;20025;-65
2024/02/25 04:15:44;;;;;;;13.75;7.88;;;;;;;;;;5042808;28;20105;-65
2024/02/25 04:18:10;;;;;;;17.58;8.50;;;5.60;99.90;;;;;;5042774;28;20040;-66
2024/02/25 04:20:36;;;;;;;18.52;8.40;;;;;;;;;;5042837;28;20240;-66
2024/02/25 04:23:03;;;;;;;16.65;8.93;;;5.30;99.90;;;;;;5042147;28;20241;-67
2024/02/25 04:25:29;;;;;;;17.83;8.88;;;;;;;;;;5042470;28;20056;-69
2024/02/25 04:27:55;;;;;;;15.60;8.60;;;;;;;;;;5042936;28;20221;-69
2024/02/25 04:30:21;;;;;;;15.20;9.00;;;;;;;;;;5042301;28;20147;-68
2024/02/25 04:32:50;;;;;;;15.32;7.85;;;;;;;;;;5042075;28;20028;-66
2024/02/25 04:35:16;;;;;;;15.30;8.05;;;;;;;;;;5042254;28;20101;-66
2024/02/25 04:37:44;;;;;;;16.70;8.32;;;5.60;99.90;;;;;;5041724;28;20052;-65
2024/02/25 04:40:13;;;;;;;15.20;8.02;;;5.40;99.90;;;;;;5042111;28;20085;-65
2024/02/25 04:42:39;;;;;;;11.98;8.05;;;;;;;;;;5042054;28;20037;-67
2024/02/25 04:45:08;;;;;;;16.40;7.57;;;;;;;;;;5041811;28;20195;-66
2024/02/25 04:47:34;;;;;;;11.93;7.07;;;;;;;;;;5041649;28;20040;-64
2024/02/25 04:50:00;;;;;;;12.57;7.85;;;;;;;;;;5041057;28;20333;-66
2024/02/25 04:52:26;;;;;;;17.83;8.40;;;;;;;;;;5041130;28;20026;-66
2024/02/25 04:54:51;;;;;;;11.02;7.47;;;5.20;99.90;;;;;;5040606;28;20083;-66
2024/02/25 04:57:17;;;;;;;16.30;8.35;;;5.10;99.90;;;;;;5040597;28;20074;-67
2024/02/25 04:59:43;;;;;;;14.23;9.02;;;;;;;;;;5041329;28;20297;-66
2024/02/25 05:02:09;;;;;;;15.35;9.35;;;5.30;99.90;;;;;;5041203;28;20026;-66
2024/02/25 05:04:36;;;;;;;17.38;9.18;;;;;;;;;;5039837;28;20025;-64
2024/02/25 05:07:02;;;;;;;15.95;7.85;;;5.20;99.90;;;;;;5039947;28;20033;-65
2024/02/25 05:09:28;;;;;;;14.25;8.35;;;5.50;99.90;;;;;;5040982;28;20032;-64
2024/02/25 05:11:54;;;;;;;12.38;8.32;;;5.10;99.90;;;;;;5041047;28;20088;-67
2024/02/25 05:14:20;;;;;;;15.13;8.63;;;;;;;;;;5041155;28;20363;-64
2024/02/25 05:16:47;;;;;;;11.60;7.90;;;;;;;;;;5041075;28;20064;-66
2024/02/25 05:19:13;;;;;;;19.67;8.30;;;;;;;;;;5040261;28;20410;-64
2024/02/25 05:21:41;;;;;;;17.80;9.48;;;5.10;99.90;;;;;;5040296;28;20037;-65
2024/02/25 05:24:07;;;;;;;15.13;8.90;;;;;;;;;;5040421;28;20031;-66
2024/02/25 05:26:33;;;;;;;16.63;9.02;;;5.00;99.90;;;;;;5039899;28;20040;-65
2024/02/25 05:28:59;;;;;;;13.57;8.10;;;;;;;;;;5040345;28;20505;-65
2024/02/25 05:31:26;;;;;;;19.00;10.38;;;;;;;;;;5040299;28;20044;-66
2024/02/25 05:33:52;;;;;;;13.75;8.40;;;;;;;;;;5040245;28;20346;-65
2024/02/25 05:36:22;;;;;;;10.73;7.55;;;;;;;;;;5040357;28;20057;-65
2024/02/25 05:38:48;;;;;;;11.25;6.40;;;;;;;;;;5040169;28;20317;-65
2024/02/25 05:41:14;;;;;;;6.32;4.22;;;5.30;99.90;;;;;;5040293;28;20028;-65
2024/02/25 05:43:41;;;;;;;7.05;4.63;;;5.00;99.90;;;;;;5040255;28;20089;-66
2024/02/25 05:46:07;;;;;;;7.25;4.95;;;;;;;;;;5040267;28;20070;-68
2024/02/25 05:48:33;;;;;;;9.55;4.90;;;;;;;;;;5040181;28;20106;-66
2024/02/25 05:50:59;;;;;;;10.65;6.47;;;;;;;;;;5040298;28;20029;-66
2024/02/25 05:53:24;;;;;;;10.27;7.28;;;5.00;99.90;;;;;;5040222;28;20230;-66
2024/02/25 05:55:53;;;;;;;13.13;7.35;;;;;;;;;;5040134;28;20309;-66
2024/02/25 05:58:19;;;;;;;14.90;8.00;;;4.90;99.90;;;;;;5040163;28;20334;-66
2024/02/25 06:00:45;;;;;;;11.57;7.25;;;;;;;;;;5040270;28;20089;-67
2024/02/25 06:03:11;;;;;;;11.48;7.15;;;;;;;;;;5039967;28;20088;-67
2024/02/25 06:05:36;;;;;;;12.73;8.25;;;5.20;99.90;;;;;;5040003;28;20029;-67
2024/02/25 06:08:02;;;;;;;12.38;6.75;;;5.20;99.90;;;;;;5039161;28;20044;-66
2024/02/25 06:10:28;;;;;;;8.60;5.65;;;;;;;;;;5040157;28;20071;-66
2024/02/25 06:12:54;;;;;;;11.10;6.32;;;;;;;;;;5040021;28;20025;-64
2024/02/25 06:15:20;;;;;;;16.00;9.43;;;;;;;;;;5039657;28;20021;-65
2024/02/25 06:17:47;;;;;;;15.75;8.48;;;;;;;;;;5039625;28;20048;-65
2024/02/25 06:20:13;;;;;;;12.90;7.13;;;;;;;;;;5036559;28;20025;-67
2024/02/25 06:22:40;;;;;;;14.57;8.18;;;5.30;99.90;;;;;;5028805;28;20088;-67
2024/02/25 06:25:06;;;;;;;17.23;9.20;;;5.30;99.90;;;;;;5020058;28;20559;-66
2024/02/25 06:27:35;;;;;;;13.50;9.45;;;5.20;99.90;;;;;;5024476;28;20029;-65
2024/02/25 06:30:01;;;;;;;16.65;10.13;;;;;;;;;;5039579;28;20032;-64
2024/02/25 06:32:26;;;;;;;24.10;13.27;;;5.50;99.90;;;;;;5039644;28;20202;-63
2024/02/25 06:34:52;;;;;;;27.02;13.52;;;5.40;99.90;;;;;;5039264;28;20041;-64
2024/02/25 06:37:18;;;;;;;17.27;11.23;;;;;;;;;;5032767;28;20451;-65
2024/02/25 06:39:44;;;;;;;19.65;11.65;;;;;;;;;;5019548;28;20022;-65
2024/02/25 06:42:10;;;;;;;18.95;12.32;;;5.20;99.90;;;;;;5019693;28;20068;-65
2024/02/25 06:44:36;;;;;;;17.33;12.15;;;;;;;;;;5019560;28;20309;-66
2024/02/25 06:47:02;;;;;;;18.88;12.45;;;;;;;;;;5018555;28;20049;-65
2024/02/25 06:49:28;;;;;;;21.95;11.43;;;5.60;99.90;;;;;;5019706;28;20418;-65
2024/02/25 06:51:54;;;;;;;17.65;10.82;;;5.50;99.90;;;;;;5019822;28;20034;-64
2024/02/25 06:54:21;;;;;;;23.00;12.48;;;5.50;99.90;;;;;;5019602;28;20018;-65
2024/02/25 06:56:46;;;;;;;18.42;11.63;;;5.60;99.90;;;;;;5019694;28;20052;-66
2024/02/25 06:59:12;;;;;;;21.88;12.05;;;;;;;;;;5019799;28;20314;-66
2024/02/25 07:01:38;;;;;;;20.15;12.15;;;6.20;99.90;;;;;;5019816;28;20411;-67
2024/02/25 07:04:04;;;;;;;21.67;13.15;;;6.00;99.90;;;;;;5019679;28;20128;-67
2024/02/25 07:06:30;;;;;;;22.65;11.30;;;;;;;;;;5019870;28;20053;-66
2024/02/25 07:08:56;;;;;;;21.67;11.60;;;;;;;;;;5019768;28;20021;-65
2024/02/25 07:11:23;;;;;;;20.10;12.00;;;6.20;99.90;;;;;;5019753;28;20033;-64
2024/02/25 07:13:49;;;;;;;18.30;10.95;;;;;;;;;;5020857;28;20045;-63
2024/02/25 07:16:15;;;;;;;18.33;11.60;;;6.60;99.90;;;;;;5039231;28;20100;-63
2024/02/25 07:18:41;;;;;;;18.80;10.50;;;6.90;99.90;;;;;;5040088;28;20044;-63
2024/02/25 07:21:08;;;;;;;17.50;10.77;;;7.00;99.90;;;;;;5042749;28;20021;-66
2024/02/25 07:23:41;;;;;;;18.70;12.73;;;7.20;99.90;;;;;;5042713;28;20025;-64
2024/02/25 07:26:11;;;;;;;18.02;13.27;;;7.50;99.90;;;;;;5042761;28;20017;-65
2024/02/25 07:28:43;;;;;;;18.80;12.30;;;7.80;99.90;;;;;;5042543;28;20088;-65
2024/02/25 07:31:19;;;;;;;18.30;11.00;;;7.90;99.90;;;;;;5042549;28;20029;-65
2024/02/25 07:33:46;;;;;;;15.60;9.80;;;8.20;99.90;;;;;;5042401;28;20130;-65
2024/02/25 07:36:14;;;;;;;17.50;10.55;;;8.30;99.90;;;;;;5042430;28;20037;-65
2024/02/25 07:38:40;;;;;;;14.90;10.70;;;8.60;99.90;;;;;;5042501;28;20041;-66
2024/02/25 07:41:06;;;;;;;15.45;10.10;;;8.80;99.90;;;;;;5042425;28;20033;-64
2024/02/25 07:43:33;;;;;;;19.45;12.02;;;9.20;99.90;;;;;;5042479;28;20021;-65
2024/02/25 07:45:59;;;;;;;19.88;11.15;;;;;;;;;;5040459;28;20022;-64
2024/02/25 07:48:25;;;;;;;22.08;12.25;;;9.50;99.90;;;;;;5042006;28;20028;-64
2024/02/25 07:50:51;;;;;;;21.20;13.27;;;9.80;99.90;;;;;;5041900;28;20075;-64
2024/02/25 07:53:17;;;;;;;18.63;13.18;;;;;;;;;;5041139;28;20044;-65
2024/02/25 07:55:43;;;;;;;17.15;10.20;;;;;;;;;;5041866;28;20045;-66
2024/02/25 07:58:08;;;;;;;12.93;8.77;;;10.30;99.90;;;;;;5041572;28;20037;-68
2024/02/25 08:00:34;;;;;;;11.45;7.47;;;;;;;;;;5040991;28;20021;-66
2024/02/25 08:03:00;;;;;;;11.15;7.13;;;10.60;99.90;;;;;;5040945;28;20029;-67
2024/02/25 08:05:26;;;;;;;10.40;5.47;;;10.80;99.90;;;;;;5041192;28;20032;-67
2024/02/25 08:07:53;;;;;;;10.98;4.57;;;10.80;99.90;;;;;;5041551;28;20092;-68
2024/02/25 08:10:19;;;;;;;7.88;5.15;;;11.10;99.90;;;;;;5041647;28;20025;-67
2024/02/25 08:12:46;;;;;;;5.45;3.60;;;11.10;99.90;;;;;;5041826;28;20026;-66
2024/02/25 08:15:12;;;;;;;7.40;4.75;;;11.30;99.90;;;;;;5042790;28;20025;-68
2024/02/25 08:17:38;;;;;;;5.95;4.47;;;11.30;99.90;;;;;;5039941;28;20041;-66
2024/02/25 08:20:05;;;;;;;7.80;3.97;;;11.30;99.90;;;;;;5043480;28;20136;-66
2024/02/25 08:22:37;;;;;;;9.50;4.30;;;11.30;99.90;;;;;;5042556;28;20422;-67
2024/02/25 08:25:04;;;;;;;6.93;4.30;;;11.70;99.90;;;;;;5041577;28;20036;-69
2024/02/25 08:27:32;;;;;;;6.38;3.67;;;11.50;99.90;;;;;;5040288;28;20029;-66
2024/02/25 08:30:04;;;;;;;6.73;3.80;;;11.50;99.90;;;;;;5040557;28;20036;-66
2024/02/25 08:32:30;;;;;;;7.53;4.28;;;11.90;99.90;;;;;;5037895;28;20407;-66
2024/02/25 08:34:56;;;;;;;4.80;3.20;;;11.30;99.90;;;;;;5040539;28;20060;-65
2024/02/25 08:37:23;;;;;;;6.95;4.00;;;11.50;99.90;;;;;;5028751;28;20041;-66
2024/02/25 08:39:49;;;;;;;6.32;3.95;;;11.60;99.90;;;;;;5026557;28;20068;-66
2024/02/25 08:42:16;;;;;;;7.13;4.32;;;11.50;97.70;;;;;;5032721;28;20136;-67
2024/02/25 08:44:42;;;;;;;10.63;5.05;;;;;;;;;;5034701;28;20042;-67
2024/02/25 08:47:08;;;;;;;6.80;4.47;;;;;;;;;;5032896;28;20021;-69
2024/02/25 08:49:34;;;;;;;8.40;4.88;;;;;;;;;;5041181;28;20033;-66
2024/02/25 08:52:00;;;;;;;10.18;5.70;;;11.80;98.00;;;;;;5037013;28;20035;-66
2024/02/25 08:54:26;;;;;;;6.75;4.68;;;11.70;98.50;;;;;;5021139;28;20026;-66
2024/02/25 08:56:53;;;;;;;6.05;4.85;;;11.50;98.10;;;;;;5020979;28;20042;-65
2024/02/25 08:59:19;;;;;;;6.88;4.97;;;11.20;97.90;;;;;;5021157;28;20554;-65
2024/02/25 09:01:45;;;;;;;7.85;5.22;;;;;;;;;;5020825;28;20026;-67
2024/02/25 09:04:12;;;;;;;10.75;6.13;;;11.30;98.80;;;;;;5020856;28;20030;-65
2024/02/25 09:06:39;;;;;;;7.40;5.43;;;11.60;97.80;;;;;;5020869;28;20029;-65
2024/02/25 09:09:05;;;;;;;7.75;5.13;;;;;;;;;;5019587;28;20033;-64
2024/02/25 09:11:31;;;;;;;9.85;4.90;;;11.50;98.50;;;;;;5019431;28;20026;-66
2024/02/25 09:13:57;;;;;;;8.38;4.72;;;11.70;93.00;;;;;;5020899;28;20076;-66
2024/02/25 09:16:23;;;;;;;7.03;5.10;;;11.50;94.60;;;;;;5020497;28;20037;-66
2024/02/25 09:18:49;;;;;;;8.85;5.07;;;11.80;97.60;;;;;;5020620;28;20037;-66
2024/02/25 09:21:15;;;;;;;9.15;4.47;;;11.70;92.80;;;;;;5020627;28;20446;-66
2024/02/25 09:23:41;;;;;;;6.38;4.68;;;12.00;90.50;;;;;;5020669;28;20045;-66
2024/02/25 09:26:08;;;;;;;6.13;4.50;;;12.10;97.20;;;;;;5020445;28;20260;-66
2024/02/25 09:28:34;;;;;;;6.88;4.47;;;12.10;96.70;;;;;;5020629;28;20048;-66
2024/02/25 09:31:01;;;;;;;8.00;4.80;;;12.20;96.10;;;;;;5020408;28;20033;-65
2024/02/25 09:33:29;;;;;;;7.63;4.70;;;12.40;95.50;;;;;;5020107;28;20056;-66
2024/02/25 09:35:56;;;;;;;7.18;4.22;;;12.60;94.50;;;;;;5020344;28;20021;-66
2024/02/25 09:38:22;;;;;;;7.00;4.40;;;12.60;94.40;;;;;;5020100;28;20457;-66
2024/02/25 09:40:59;;;;;;;7.13;4.00;;;12.70;93.60;;;;;;5020141;28;20096;-65
2024/02/25 09:43:25;;;;;;;6.90;3.70;;;12.70;93.10;;;;;;5019961;28;20018;-66
2024/02/25 09:45:56;;;;;;;4.40;3.83;;;12.70;84.00;;;;;;5020266;28;20029;-66
2024/02/25 09:48:21;;;;;;;8.05;4.55;;;13.00;92.40;;;;;;5019019;28;20053;-66
2024/02/25 09:50:52;;;;;;;7.40;4.90;;;12.90;91.80;;;;;;5020216;28;20026;-66
2024/02/25 09:53:20;;;;;;;6.40;4.32;;;13.10;91.70;;;;;;5020059;28;20341;-66
2024/02/25 09:55:47;;;;;;;10.77;4.68;;;13.40;91.70;;;;;;5019939;28;20049;-66
2024/02/25 09:58:14;;;;;;;6.82;3.88;;;13.20;91.00;;;;;;5019965;28;20234;-66
2024/02/25 10:00:40;;;;;;;5.80;3.75;;;13.30;90.50;;;;;;5019623;28;20029;-66
2024/02/25 10:03:12;;;;;;;6.32;4.25;;;13.40;90.10;;;;;;5019628;28;20022;-66
2024/02/25 10:05:39;;;;;;;6.07;4.50;;;13.60;88.70;;;;;;5019551;28;20059;-67
2024/02/25 10:08:13;;;;;;;12.63;4.57;;;13.40;88.90;;;;;;5019850;28;20084;-66
2024/02/25 10:10:41;;;;;;;7.05;4.30;;;13.70;89.40;;;;;;5019742;28;20466;-66
2024/02/25 10:13:08;;;;;;;5.88;3.45;;;13.60;74.80;;;;;;5019791;28;20025;-70
2024/02/25 10:15:34;;;;;;;7.20;4.40;;;14.10;87.20;;;;;;5019804;28;20068;-66
2024/02/25 10:18:00;;;;;;;6.18;4.13;;;13.60;86.90;;;;;;5019325;28;20030;-66
2024/02/25 10:20:26;;;;;;;8.32;4.28;;;13.60;86.10;;;;;;5019719;28;20233;-65
2024/02/25 10:23:09;;;;;;;8.43;4.85;;;13.90;86.00;;;;;;5019615;28;20036;-66
2024/02/25 10:25:37;;;;;;;10.00;5.10;;;13.70;86.00;;;;;;5018302;28;20272;-65
2024/02/25 10:28:14;;;;;;;8.77;5.00;;;14.00;85.30;;;;;;5019429;28;20333;-66
2024/02/25 10:30:40;;;;;;;5.32;4.40;;;;;;;;;;5019726;28;20044;-65
2024/02/25 10:33:14;;;;;;;8.98;5.00;;;14.60;70.50;;;;;;5019559;28;20021;-65
2024/02/25 10:35:41;;;;;;;7.35;5.03;;;14.10;83.70;;;;;;5019838;28;20036;-66
2024/02/25 10:38:11;;;;;;;8.50;5.65;;;14.50;83.60;;;;;;5019593;28;20038;-67
2024/02/25 10:40:38;;;;;;;9.02;5.38;;;14.60;83.80;;;;;;5019578;28;20045;-67
2024/02/25 10:43:07;;;;;;;8.43;4.90;;;14.50;82.70;;;;;;5019667;28;20075;-65
2024/02/25 10:45:33;;;;;;;;;;;14.50;68.40;;;;;;5019492;28;20322;-66
2024/02/25 10:47:59;;;;;;;12.38;5.90;;;14.60;81.50;;;;;;5019447;28;19920;-65
2024/02/25 10:50:25;;;;;;;8.48;4.32;;;14.60;80.90;;;;;;5019349;28;20532;-65
2024/02/25 10:52:54;;;;;;;8.55;5.47;;;14.30;80.80;;;;;;5018814;28;20022;-66
2024/02/25 10:55:21;;;;;;;6.80;4.07;;;14.70;79.60;;;;;;5022189;28;20594;-68
2024/02/25 10:57:48;;;;;;;8.43;3.60;;;14.50;79.40;;;;;;5023860;28;20034;-71
2024/02/25 11:00:13;;;;;;;6.47;3.75;;;14.70;78.60;;;;;;5023989;28;20257;-66
2024/02/25 11:02:41;;;;;;;7.78;5.00;;;14.90;78.20;;;;;;5023440;28;20053;-65
2024/02/25 11:05:08;;;;;;;11.80;6.13;;;15.00;78.90;;;;;;5023000;28;20026;-66
2024/02/25 11:07:37;;;;;;;9.50;5.47;;;15.40;79.40;;;;;;5023055;28;20037;-66
2024/02/25 11:10:16;;;;;;;9.27;5.20;;;15.60;78.70;;;;;;5021954;28;20053;-66
2024/02/25 11:12:42;;;;;;;12.48;6.97;;;15.30;64.90;;;;;;5022070;28;20028;-65
2024/02/25 11:15:08;;;;;;;12.13;7.07;;;15.90;78.50;;;;;;5020541;28;20025;-65
2024/02/25 11:17:40;;;;;;;9.65;5.45;;;15.60;67.00;;;;;;5021652;28;20108;-66
2024/02/25 11:20:08;;;;;;;11.18;6.78;;;15.70;65.00;;;;;;5022958;28;20026;-65
2024/02/25 11:22:46;;;;;;;8.50;5.95;;;16.00;78.10;;;;;;5022770;28;20108;-65
2024/02/25 11:25:33;;;;;;;12.57;5.55;;;15.90;64.70;;;;;;5022527;28;20022;-65
2024/02/25 11:28:20;;;;;;;8.32;5.00;;;15.90;64.50;;;;;;5022682;28;20045;-65
2024/02/25 11:30:50;;;;;;;7.00;4.82;;;15.70;76.40;;;;;;5022550;28;20026;-65
2024/02/25 11:33:38;;;;;;;8.18;4.45;;;15.80;76.50;;;;;;5022167;28;20041;-65
2024/02/25 11:36:10;;;;;;;7.10;3.63;;;15.60;63.10;;;;;;5022201;28;20145;-65
2024/02/25 11:38:35;;;;;;;5.32;3.78;;;15.20;77.00;;;;;;5022424;28;20030;-65
2024/02/25 11:41:03;;;;;;;9.60;3.75;;;15.80;74.00;;;;;;5022386;28;20026;-65
2024/02/25 11:43:28;;;;;;;8.05;3.78;;;15.80;77.00;;;;;;5022638;28;20092;-65
2024/02/25 11:45:55;;;;;;;6.72;3.50;;;15.30;63.80;;;;;;5021262;28;20322;-65
2024/02/25 11:48:21;;;;;;;4.43;3.42;;;15.40;63.50;;;;;;5021287;28;20021;-65
2024/02/25 11:50:49;;;;;;;10.40;3.53;;;15.70;77.00;;;;;;5022112;28;20045;-65
2024/02/25 11:53:15;;;;;;;3.63;2.67;;;15.40;62.70;;;;;;5022317;28;20089;-65
2024/02/25 11:55:41;;;;;;;3.45;2.72;;;15.10;77.50;;;;;;5021874;28;20034;-65
2024/02/25 11:58:07;;;;;;;5.32;3.10;;;15.10;63.40;;;;;;5021660;28;20072;-65
2024/02/25 12:00:34;;;;;;;6.05;2.85;;;15.10;77.60;;;;;;5021265;28;20018;-65
2024/02/25 12:03:00;;;;;;;7.70;3.25;;;15.30;76.90;;;;;;5021705;28;20569;-65
2024/02/25 12:05:25;;;;;;;4.35;3.33;;;15.30;63.30;;;;;;5021493;28;20331;-64
2024/02/25 12:07:58;;;;;;;4.32;3.10;;;15.80;76.80;;;;;;5021653;28;20049;-65
2024/02/25 12:10:25;;;;;;;5.28;3.60;;;15.70;62.60;;;;;;5021787;28;20018;-65
2024/02/25 12:12:52;;;;;;;6.65;3.30;;;15.80;61.50;;;;;;5021755;28;20033;-65
2024/02/25 12:15:18;;;;;;;7.85;4.65;;;15.50;76.80;;;;;;5021418;28;20049;-65
2024/02/25 12:17:45;;;;;;;7.57;4.32;;;15.50;77.50;;;;;;5021268;28;20088;-65
2024/02/25 12:20:11;;;;;;;6.95;4.60;;;15.50;78.00;;;;;;5021358;28;20022;-65
2024/02/25 12:22:40;;;;;;;6.85;4.03;;;15.70;77.60;;;;;;5020141;28;20033;-65
2024/02/25 12:25:06;;;;;;;;;;;15.70;63.00;;;;;;5021785;28;20025;-63
2024/02/25 12:27:32;;;;;;;5.47;4.00;;;16.10;77.40;;;;;;5021548;28;19916;-63
2024/02/25 12:30:00;;;;;;;8.30;4.82;;;15.50;77.70;;;;;;5021436;28;20029;-63
2024/02/25 12:32:26;;;;;;;7.78;4.57;;;15.30;78.60;;;;;;5021412;28;20029;-63
2024/02/25 12:34:52;;;;;;;7.03;5.20;;;14.90;79.30;;;;;;5020794;28;20073;-63
2024/02/25 12:37:21;;;;;;;11.23;5.30;;;15.10;65.60;;;;;;5021028;28;20113;-64
2024/02/25 12:39:48;;;;;;;7.78;6.28;;;14.50;81.00;;;;;;5021060;28;20238;-64
2024/02/25 12:42:17;;;;;;;7.65;5.40;;;15.00;81.20;;;;;;5021242;28;20033;-64
2024/02/25 12:44:43;;;;;;;7.75;5.63;;;14.80;67.00;;;;;;5021231;28;20029;-63
2024/02/25 12:47:10;;;;;;;6.93;5.40;;;14.80;82.90;;;;;;5021142;28;20243;-63
2024/02/25 12:49:36;;;;;;;7.13;5.95;;;14.50;83.00;;;;;;5020913;28;20326;-63
2024/02/25 12:52:03;;;;;;;7.57;6.80;;;14.50;84.00;;;;;;5021098;28;20021;-63
2024/02/25 12:54:29;;;;;;;7.57;6.55;;;14.50;83.80;;;;;;5020881;28;20053;-64
2024/02/25 12:56:57;;;;;;;7.45;6.68;;;14.60;83.50;;;;;;5020592;28;20036;-63
2024/02/25 12:59:22;;;;;;;9.60;6.80;;;14.50;69.40;;;;;;5020784;28;20030;-63
2024/02/25 13:01:48;;;;;;;9.23;6.45;;;14.30;84.00;;;;;;5020624;28;20044;-65
2024/02/25 13:04:14;;;;;;;8.52;6.40;;;14.40;84.50;;;;;;5020541;28;20030;-64
2024/02/25 13:06:40;;;;;;;7.95;6.63;;;14.30;85.00;;;;;;5020813;28;20075;-63
2024/02/25 13:09:06;;;;;;;8.40;6.75;;;14.10;84.90;;;;;;5020531;28;20018;-64
2024/02/25 13:11:33;;;;;;;11.27;7.72;;;14.10;85.00;;;;;;5020398;28;20022;-63
2024/02/25 13:13:59;;;;;;;9.18;7.35;;;14.10;85.40;;;;;;5020535;28;20029;-63
2024/02/25 13:16:25;;;;;;;9.00;8.10;;;13.90;85.90;;;;;;5019593;28;20333;-65